createdAt,value
2023-03-27T15:44:26.713Z,13.35
2023-03-27T15:47:03.210Z,13.28
2023-03-27T15:49:35.749Z,13.21
2023-03-27T15:52:31.601Z,13.18
2023-03-27T15:55:01.740Z,13.15
2023-03-27T15:57:32.764Z,13.12
2023-03-27T16:00:11.261Z,13.08
2023-03-27T16:02:54.335Z,13.04
2023-03-27T16:05:38.248Z,13.00
2023-03-27T16:08:07.495Z,12.98
2023-03-27T16:10:42.832Z,12.96
2023-03-27T16:14:06.727Z,12.91
2023-03-27T16:16:40.855Z,12.85
2023-03-27T16:19:14.552Z,12.82
2023-03-27T16:22:11.179Z,12.80
2023-03-27T16:24:50.781Z,12.74
2023-03-27T16:27:49.581Z,12.70
2023-03-27T16:30:43.131Z,12.66
2023-03-27T16:33:36.904Z,12.64
2023-03-27T16:36:45.261Z,12.60
2023-03-27T16:39:50.252Z,12.56
2023-03-27T16:42:25.785Z,12.54
2023-03-27T16:44:57.177Z,12.52
2023-03-27T16:47:35.166Z,12.48
2023-03-27T16:50:11.581Z,12.42
2023-03-27T16:52:45.026Z,12.40
2023-03-27T16:55:15.604Z,12.37
2023-03-27T16:58:06.312Z,12.35
2023-03-27T17:01:09.732Z,12.30
2023-03-27T17:03:42.632Z,12.26
2023-03-27T17:06:15.277Z,12.24
2023-03-27T17:08:55.935Z,12.18
2023-03-27T17:11:25.880Z,12.14
2023-03-27T17:14:10.902Z,12.11
2023-03-27T17:16:41.521Z,12.08
2023-03-27T17:19:10.652Z,12.04
2023-03-27T17:21:41.275Z,12.01
2023-03-27T17:24:14.193Z,11.97
2023-03-27T17:26:50.099Z,11.94
2023-03-27T17:29:34.501Z,11.90
2023-03-27T17:32:05.798Z,11.87
2023-03-27T17:34:46.840Z,11.84
2023-03-27T17:37:19.151Z,11.79
2023-03-27T17:39:50.162Z,11.76
2023-03-27T17:42:44.920Z,11.74
2023-03-27T17:45:23.110Z,11.72
2023-03-27T17:47:53.197Z,11.69
2023-03-27T17:50:27.004Z,11.67
2023-03-27T17:53:00.847Z,11.64
2023-03-27T17:55:43.067Z,11.61
2023-03-27T17:58:16.667Z,11.58
2023-03-27T18:00:47.013Z,11.57
2023-03-27T18:03:20.422Z,11.54
2023-03-27T18:05:49.596Z,11.52
2023-03-27T18:08:21.215Z,11.50
2023-03-27T18:10:52.541Z,11.46
2023-03-27T18:13:23.530Z,11.44
2023-03-27T18:15:59.541Z,11.41
2023-03-27T18:18:30.317Z,11.37
2023-03-27T18:21:04.717Z,11.32
2023-03-27T18:23:45.459Z,11.28
2023-03-27T18:26:18.742Z,11.26
2023-03-27T18:28:48.442Z,11.24
2023-03-27T18:31:19.092Z,11.21
2023-03-27T18:33:52.759Z,11.19
2023-03-27T18:36:24.787Z,11.17
2023-03-27T18:38:59.830Z,11.16
2023-03-27T18:41:31.646Z,11.14
2023-03-27T18:44:00.578Z,11.11
2023-03-27T18:46:39.113Z,11.10
2023-03-27T18:49:24.473Z,11.10
2023-03-27T18:51:54.234Z,11.08
2023-03-27T18:57:45.361Z,11.03
2023-03-27T19:00:21.828Z,10.99
2023-03-27T19:03:01.828Z,10.96
2023-03-27T19:05:40.657Z,10.95
2023-03-27T19:08:25.220Z,10.93
2023-03-27T19:11:10.608Z,10.92
2023-03-27T19:14:27.112Z,10.90
2023-03-27T19:17:19.560Z,10.85
2023-03-27T19:20:10.899Z,10.79
2023-03-27T19:23:07.504Z,10.75
2023-03-27T19:25:43.082Z,10.74
2023-03-27T19:28:14.332Z,10.77
2023-03-27T19:30:47.832Z,10.80
2023-03-27T19:33:21.083Z,10.82
2023-03-27T19:35:54.647Z,10.83
2023-03-27T19:38:27.320Z,10.82
2023-03-27T19:41:02.528Z,10.81
2023-03-27T19:43:37.739Z,10.78
2023-03-27T19:46:16.528Z,10.75
2023-03-27T19:48:48.156Z,10.72
2023-03-27T19:51:30.429Z,10.69
2023-03-27T19:54:09.519Z,10.69
2023-03-27T19:56:39.509Z,10.69
2023-03-27T19:59:34.006Z,10.69
2023-03-27T20:02:08.374Z,10.68
2023-03-27T20:04:39.220Z,10.69
2023-03-27T20:07:15.642Z,10.69
2023-03-27T20:09:55.329Z,10.69
2023-03-27T20:12:26.011Z,10.70
2023-03-27T20:15:13.062Z,10.69
2023-03-27T20:17:49.096Z,10.68
2023-03-27T20:20:20.538Z,10.67
2023-03-27T20:22:58.185Z,10.64
2023-03-27T20:25:32.713Z,10.63
2023-03-27T20:28:02.852Z,10.62
2023-03-27T20:30:34.099Z,10.61
2023-03-27T20:33:05.180Z,10.60
2023-03-27T20:35:37.144Z,10.56
2023-03-27T20:38:12.105Z,10.54
2023-03-27T20:40:53.696Z,10.51
2023-03-27T20:43:35.240Z,10.48
2023-03-27T20:46:07.828Z,10.45
2023-03-27T20:48:41.930Z,10.44
2023-03-27T20:51:15.820Z,10.41
2023-03-27T20:53:54.477Z,10.41
2023-03-27T20:56:27.242Z,10.41
2023-03-27T20:58:56.447Z,10.40
2023-03-27T21:01:28.542Z,10.32
2023-03-27T21:04:03.512Z,10.23
2023-03-27T21:06:38.842Z,10.20
2023-03-27T21:09:14.066Z,10.19
2023-03-27T21:11:45.422Z,10.20
2023-03-27T21:14:16.768Z,10.21
2023-03-27T21:16:50.019Z,10.20
2023-03-27T21:19:23.612Z,10.17
2023-03-27T21:21:54.179Z,10.15
2023-03-27T21:24:24.337Z,10.11
2023-03-27T21:26:58.340Z,10.08
2023-03-27T21:29:38.598Z,10.06
2023-03-27T21:32:09.514Z,10.06
2023-03-27T21:34:41.943Z,10.06
2023-03-27T21:37:14.913Z,10.06
2023-03-27T21:39:47.470Z,10.01
2023-03-27T21:42:29.787Z,9.95
2023-03-27T21:45:08.667Z,9.92
2023-03-27T21:47:47.590Z,9.92
2023-03-27T21:50:23.321Z,9.93
2023-03-27T21:53:06.787Z,9.95
2023-03-27T21:55:39.972Z,9.95
2023-03-27T21:58:16.461Z,9.95
2023-03-27T22:01:01.048Z,9.95
2023-03-27T22:03:31.872Z,9.92
2023-03-27T22:06:12.252Z,9.91
2023-03-27T22:08:44.331Z,9.89
2023-03-27T22:11:13.780Z,9.89
2023-03-27T22:13:44.326Z,9.88
2023-03-27T22:16:18.554Z,9.88
2023-03-27T22:18:51.512Z,9.88
2023-03-27T22:25:31.855Z,9.84
2023-03-27T22:28:39.182Z,9.82
2023-03-27T22:38:15.898Z,9.79
2023-03-27T22:44:45.838Z,9.74
2023-03-27T22:48:27.899Z,9.72
2023-03-27T22:54:49.491Z,9.67
2023-03-27T22:57:47.272Z,9.66
2023-03-27T23:00:18.836Z,9.65
2023-03-27T23:03:03.396Z,9.63
2023-03-27T23:05:50.757Z,9.59
2023-03-27T23:08:27.371Z,9.56
2023-03-27T23:11:00.677Z,9.56
2023-03-27T23:13:34.805Z,9.56
2023-03-27T23:16:11.438Z,9.55
2023-03-27T23:18:43.657Z,9.53
2023-03-27T23:21:13.959Z,9.53
2023-03-27T23:23:44.156Z,9.53
2023-03-27T23:26:13.165Z,9.53
2023-03-27T23:28:48.322Z,9.52
2023-03-27T23:31:18.296Z,9.51
2023-03-27T23:33:51.510Z,9.49
2023-03-27T23:36:23.166Z,9.49
2023-03-27T23:38:53.083Z,9.49
2023-03-27T23:41:24.816Z,9.46
2023-03-27T23:43:54.174Z,9.44
2023-03-27T23:46:25.616Z,9.43
2023-03-27T23:48:55.591Z,9.42
2023-03-27T23:51:29.503Z,9.39
2023-03-27T23:54:03.115Z,9.37
2023-03-27T23:56:31.701Z,9.37
2023-03-27T23:59:00.577Z,9.35
